Tuesday, August 30, 2016
05:04 UTC
  |  Log In   |  Register Free
Airport Search:

Laguardia Airport
(KLGA)

FAA data valid effective Jul 21 2016 - Sep 15 2016 (unless otherwise noted).

 
 
 
 
 
 
 
 
 
 
 
 
 
 
Current Aviation Weather for KLGA

Weather Summary


The most recent METAR observation for LGA was updated at: 12:51 UTC
METAR for LGA is not available. Closest METAR is for
METAR

METAR KLGA 300451Z 05009KT 10SM CLR 25/14 A3013 RMK AO2 SLP204 T02500139 403280250

METAR KLGA 300351Z 03007KT 10SM FEW250 26/14 A3012 RMK AO2 SLP199 T02610139

METAR KLGA 300251Z 02010KT 10SM FEW250 27/14 A3012 RMK AO2 SLP199 T02670139 51013

METAR KCDW 300453Z 00000KT 10SM CLR 20/16 A3016 RMK AO2 SLP215 T02000161 403170200 TSNO

METAR KEWR 300451Z 03007KT 10SM FEW250 23/14 A3014 RMK AO2 SLP205 T02330139 403390222

METAR KFRG 300453Z 02007KT 10SM CLR 22/16 A3014 RMK AO2 SLP205 T02220161 403330222

TAF for LGA is not available.
TAF

KLGA - TAF AMD KLGA 300238Z 3003/3024 04008KT P6SM FEW250

KLGA - FM301900 17009KT P6SM FEW050 SCT250 =

KTEB - TAF AMD KTEB 300238Z 3003/3024 01007KT P6SM SKC

KTEB - FM301200 04004KT P6SM SKC

KTEB - FM301400 VRB04KT P6SM FEW250

KTEB - FM301900 18007KT P6SM FEW050 SCT250 =

KJFK - TAF AMD KJFK 300238Z 3003/3106 03007KT P6SM FEW250

KJFK - FM301400 08007KT P6SM SCT250

KJFK - FM301700 18010KT P6SM FEW050 SCT250

KJFK - FM310300 21005KT P6SM SCT250 =

KEWR - TAF AMD KEWR 300238Z 3003/3106 01008KT P6SM FEW250

KEWR - FM301200 04006KT P6SM SKC

KEWR - FM301600 08006KT P6SM FEW250

KEWR - FM301800 15007KT P6SM FEW050 SCT250

KEWR - FM310000 18007KT P6SM SCT250 =

KHPN - TAF KHPN 292339Z 3000/3024 35005KT P6SM SKC

KHPN - FM300400 01005KT P6SM SKC

KHPN - FM301300 07004KT P6SM FEW250

KHPN - FM301800 18007KT P6SM FEW050 SCT250 AMD NOT SKED =

GlobalAir.com is loading additional information.
 Current Weather at LGA
79.0 F° (26.1 C°)

Northeast winds at 8.1 mph
Pressure:
30.12 in
Humidity:
47%
Wind:
Northeast at 8.1 mph
Dew Point:
57.0 F° (13.9 C°)
Visibility:
10.00 mi
LGA NOAA Radar




Find All Airport Services Find A Hotel Find A Rental Car Find A Golf Course Find A Restaurant $100 Hamburger



Airport Weather Forecast for KLGA

Translated METAR for KLGA (0251 UTC)
METAR:
KLGA 300251Z Laguardia, New York, NY (KLGA). Aug 30, 0251Z. Wind from 020° at 10 knots, 10 statute miles visibility, Few clouds at 25,000 feet, Temperature 27°C, Dewpoint 14°C, Altimeter is 30.12. Remarks: automated station with precipitation discriminator sea level pressure 1019.9 hectopascals hourly temp 26.7°C dewpoint 13.9°C 3-hour atmospheric pressure increasing, then steady, or increasing then increasing more slowly by 1.3 hectopascals
Conditions at:
KLGA (Laguardia, NY) observed 0251 UTC 30 August 2016
Temperature:
79.0 F° (26.1 C°)
Dewpoint:
not reported - refer to area weather report
Pressure:
30.12 Hg
Winds:
not reported
Visibility:
10.00
Ceiling:
at least 12,000 feet AGL
Clouds:
not reported - refer to area weather report
Remarks:

Translated TAF for TAF for LGA is not available. Refer to local area forecast.
FBO's on the Field
FBO Company Facility Photos Services Transportation Aviation Fuel Prices: Prices include tax
Catering Weather Repair Courtesy Rental Type 100LL JetA JetA+ MOGAS 8087
 
Sheltair

This FBO has not yet been rated
FS:Avfuel
Last Updated: Aug-05
Login to update fuel prices
SS:
Contact SheltairMore FBO Information
 
Add another FBO Facility Photos Catering Weather Repair Courtesy Rental Type 100LL JetA JetA+ MOGAS 8087
Services Transportation Aviation Fuel Prices: Prices include tax


model-print
model-print
model-print
model-print